sensor_id;sensor_type;location;lat;lon;timestamp;pressure;altitude;pressure_sealevel;temperature;humidity
27864;BME280;15980;51.092;13.916;2023-02-28T00:06:29;99975.06;;;-0.85;87.71
27864;BME280;15980;51.092;13.916;2023-02-28T00:16:30;99978.31;;;-1.18;87.58
27864;BME280;15980;51.092;13.916;2023-02-28T00:26:30;99968.66;;;-1.37;87.56
27864;BME280;15980;51.092;13.916;2023-02-28T00:36:30;99962.91;;;-1.52;87.04
27864;BME280;15980;51.092;13.916;2023-02-28T00:46:31;99967.09;;;-1.56;87.11
27864;BME280;15980;51.092;13.916;2023-02-28T00:56:31;99974.34;;;-1.69;87.43
27864;BME280;15980;51.092;13.916;2023-02-28T01:06:31;99959.63;;;-1.84;87.72
27864;BME280;15980;51.092;13.916;2023-02-28T01:16:32;99968.34;;;-2.01;88.18
27864;BME280;15980;51.092;13.916;2023-02-28T01:26:32;99953.50;;;-2.22;88.79
27864;BME280;15980;51.092;13.916;2023-02-28T01:36:32;99952.84;;;-2.35;88.98
27864;BME280;15980;51.092;13.916;2023-02-28T01:46:34;99952.50;;;-2.57;89.29
27864;BME280;15980;51.092;13.916;2023-02-28T01:56:36;99945.00;;;-2.92;89.38
27864;BME280;15980;51.092;13.916;2023-02-28T02:36:51;99942.59;;;-3.74;90.39
27864;BME280;15980;51.092;13.916;2023-02-28T02:46:58;99942.28;;;-3.91;90.64
27864;BME280;15980;51.092;13.916;2023-02-28T02:57:04;99947.16;;;-4.13;90.62
27864;BME280;15980;51.092;13.916;2023-02-28T03:07:05;99955.91;;;-4.31;90.85
27864;BME280;15980;51.092;13.916;2023-02-28T03:17:34;99945.88;;;-4.55;90.17
27864;BME280;15980;51.092;13.916;2023-02-28T03:48:27;99944.31;;;-4.89;91.09
27864;BME280;15980;51.092;13.916;2023-02-28T03:58:39;99953.84;;;-5.07;91.02
27864;BME280;15980;51.092;13.916;2023-02-28T04:08:42;99963.53;;;-5.19;90.93
27864;BME280;15980;51.092;13.916;2023-02-28T04:18:42;99977.31;;;-5.35;90.57
27864;BME280;15980;51.092;13.916;2023-02-28T04:28:42;99983.06;;;-5.38;91.24
27864;BME280;15980;51.092;13.916;2023-02-28T04:38:43;99978.34;;;-5.43;91.86
27864;BME280;15980;51.092;13.916;2023-02-28T04:48:44;99987.19;;;-5.49;91.22
27864;BME280;15980;51.092;13.916;2023-02-28T04:58:44;99989.44;;;-5.52;91.39
27864;BME280;15980;51.092;13.916;2023-02-28T05:08:45;99983.06;;;-5.51;92.12
27864;BME280;15980;51.092;13.916;2023-02-28T05:18:45;99995.56;;;-5.78;90.84
27864;BME280;15980;51.092;13.916;2023-02-28T05:28:46;99991.22;;;-5.79;90.95
27864;BME280;15980;51.092;13.916;2023-02-28T05:38:50;100002.53;;;-5.84;90.31
27864;BME280;15980;51.092;13.916;2023-02-28T05:48:50;100003.56;;;-5.85;90.72
27864;BME280;15980;51.092;13.916;2023-02-28T05:58:51;99999.25;;;-5.79;90.46
27864;BME280;15980;51.092;13.916;2023-02-28T06:08:51;100019.63;;;-5.65;91.04
27864;BME280;15980;51.092;13.916;2023-02-28T06:18:51;100024.63;;;-5.55;90.07
27864;BME280;15980;51.092;13.916;2023-02-28T06:28:52;100035.16;;;-5.14;90.60
27864;BME280;15980;51.092;13.916;2023-02-28T06:38:52;100045.97;;;-4.36;90.44
27864;BME280;15980;51.092;13.916;2023-02-28T06:48:53;100057.47;;;-3.71;89.52
27864;BME280;15980;51.092;13.916;2023-02-28T06:58:53;100060.22;;;-3.15;88.67
27864;BME280;15980;51.092;13.916;2023-02-28T07:08:54;100073.53;;;-3.27;87.74
27864;BME280;15980;51.092;13.916;2023-02-28T07:18:55;100073.03;;;-2.86;88.62
27864;BME280;15980;51.092;13.916;2023-02-28T07:28:55;100066.59;;;-2.16;87.75
27864;BME280;15980;51.092;13.916;2023-02-28T07:38:55;100068.56;;;-1.57;86.78
27864;BME280;15980;51.092;13.916;2023-02-28T07:48:57;100085.66;;;-0.68;84.37
27864;BME280;15980;51.092;13.916;2023-02-28T07:58:57;100089.88;;;0.10;81.51
27864;BME280;15980;51.092;13.916;2023-02-28T08:08:57;100089.56;;;0.46;78.68
27864;BME280;15980;51.092;13.916;2023-02-28T08:18:57;100093.38;;;0.62;75.19
27864;BME280;15980;51.092;13.916;2023-02-28T08:28:58;100090.94;;;1.22;75.28
27864;BME280;15980;51.092;13.916;2023-02-28T08:38:58;100098.47;;;1.54;72.14
27864;BME280;15980;51.092;13.916;2023-02-28T08:48:58;100108.47;;;1.70;70.99
27864;BME280;15980;51.092;13.916;2023-02-28T08:58:59;100106.44;;;1.77;69.90
27864;BME280;15980;51.092;13.916;2023-02-28T09:08:59;100097.16;;;2.12;69.86
27864;BME280;15980;51.092;13.916;2023-02-28T09:19:00;100099.69;;;2.18;70.40
27864;BME280;15980;51.092;13.916;2023-02-28T09:29:01;100102.16;;;2.64;68.35
27864;BME280;15980;51.092;13.916;2023-02-28T09:39:01;100095.28;;;2.34;67.27
27864;BME280;15980;51.092;13.916;2023-02-28T09:49:06;100096.59;;;1.54;67.58
27864;BME280;15980;51.092;13.916;2023-02-28T10:09:19;100114.97;;;1.52;64.98
27864;BME280;15980;51.092;13.916;2023-02-28T10:29:33;100105.59;;;3.72;57.64
27864;BME280;15980;51.092;13.916;2023-02-28T10:49:34;100107.72;;;4.07;56.12
27864;BME280;15980;51.092;13.916;2023-02-28T10:59:34;100086.19;;;4.48;54.75
27864;BME280;15980;51.092;13.916;2023-02-28T11:09:38;100085.19;;;3.64;54.97
27864;BME280;15980;51.092;13.916;2023-02-28T11:19:44;100081.13;;;2.27;57.63
27864;BME280;15980;51.092;13.916;2023-02-28T11:29:47;100070.00;;;2.72;57.18
27864;BME280;15980;51.092;13.916;2023-02-28T11:39:47;100060.75;;;2.68;59.10
27864;BME280;15980;51.092;13.916;2023-02-28T12:31:26;100044.16;;;1.39;63.03
27864;BME280;15980;51.092;13.916;2023-02-28T12:51:35;100035.03;;;1.62;60.39
27864;BME280;15980;51.092;13.916;2023-02-28T13:11:45;100022.88;;;1.81;62.22
27864;BME280;15980;51.092;13.916;2023-02-28T13:21:47;100032.34;;;1.45;61.16
27864;BME280;15980;51.092;13.916;2023-02-28T13:42:34;100019.53;;;1.96;59.79
27864;BME280;15980;51.092;13.916;2023-02-28T13:52:44;99992.94;;;2.36;59.98
27864;BME280;15980;51.092;13.916;2023-02-28T14:13:42;99983.38;;;2.56;59.81
27864;BME280;15980;51.092;13.916;2023-02-28T14:34:17;99961.25;;;2.37;59.79
27864;BME280;15980;51.092;13.916;2023-02-28T14:44:23;99962.72;;;2.23;61.69
27864;BME280;15980;51.092;13.916;2023-02-28T14:54:24;99965.19;;;2.02;62.34
27864;BME280;15980;51.092;13.916;2023-02-28T15:04:27;99963.69;;;1.89;61.83
27864;BME280;15980;51.092;13.916;2023-02-28T15:14:27;99967.94;;;1.80;64.26
27864;BME280;15980;51.092;13.916;2023-02-28T15:24:44;99973.44;;;1.69;64.28
27864;BME280;15980;51.092;13.916;2023-02-28T15:34:46;99958.72;;;1.60;65.80
27864;BME280;15980;51.092;13.916;2023-02-28T15:44:47;99962.34;;;1.48;65.77
27864;BME280;15980;51.092;13.916;2023-02-28T15:54:48;99958.88;;;1.31;67.61
27864;BME280;15980;51.092;13.916;2023-02-28T16:14:57;99950.78;;;0.81;68.00
27864;BME280;15980;51.092;13.916;2023-02-28T16:24:58;99961.94;;;0.39;69.04
27864;BME280;15980;51.092;13.916;2023-02-28T16:34:59;99961.88;;;0.06;70.90
27864;BME280;15980;51.092;13.916;2023-02-28T16:44:59;99954.47;;;-0.27;71.94
27864;BME280;15980;51.092;13.916;2023-02-28T16:54:59;99958.63;;;-0.60;73.44
27864;BME280;15980;51.092;13.916;2023-02-28T17:05:00;99967.78;;;-0.96;73.35
27864;BME280;15980;51.092;13.916;2023-02-28T17:15:00;99976.56;;;-1.24;75.28
27864;BME280;15980;51.092;13.916;2023-02-28T17:25:01;99977.66;;;-1.43;77.22
27864;BME280;15980;51.092;13.916;2023-02-28T17:35:01;99970.84;;;-1.58;76.93
27864;BME280;15980;51.092;13.916;2023-02-28T17:45:01;99987.84;;;-1.75;76.74
27864;BME280;15980;51.092;13.916;2023-02-28T17:55:03;99973.41;;;-1.93;77.42
27864;BME280;15980;51.092;13.916;2023-02-28T18:05:04;99969.81;;;-2.16;77.84
27864;BME280;15980;51.092;13.916;2023-02-28T18:15:05;99964.19;;;-2.33;78.89
27864;BME280;15980;51.092;13.916;2023-02-28T18:25:07;99969.13;;;-2.48;79.51
27864;BME280;15980;51.092;13.916;2023-02-28T18:35:08;99964.94;;;-2.63;79.95
27864;BME280;15980;51.092;13.916;2023-02-28T18:45:09;99983.50;;;-2.79;81.24
27864;BME280;15980;51.092;13.916;2023-02-28T18:55:09;99966.56;;;-2.98;81.35
27864;BME280;15980;51.092;13.916;2023-02-28T19:05:10;99962.94;;;-3.10;81.71
27864;BME280;15980;51.092;13.916;2023-02-28T19:15:10;99977.06;;;-3.22;82.72
27864;BME280;15980;51.092;13.916;2023-02-28T19:25:11;99977.63;;;-3.38;82.59
27864;BME280;15980;51.092;13.916;2023-02-28T19:35:11;99971.94;;;-3.55;83.14
27864;BME280;15980;51.092;13.916;2023-02-28T19:45:11;99980.22;;;-3.56;83.79
27864;BME280;15980;51.092;13.916;2023-02-28T19:55:12;99983.16;;;-3.64;84.23
27864;BME280;15980;51.092;13.916;2023-02-28T20:05:12;99984.63;;;-3.68;84.59
27864;BME280;15980;51.092;13.916;2023-02-28T20:15:12;99986.72;;;-3.70;85.51
27864;BME280;15980;51.092;13.916;2023-02-28T20:25:12;99981.75;;;-3.67;86.21
27864;BME280;15980;51.092;13.916;2023-02-28T20:35:13;99978.28;;;-3.74;86.20
27864;BME280;15980;51.092;13.916;2023-02-28T20:45:13;99989.06;;;-3.81;86.33
27864;BME280;15980;51.092;13.916;2023-02-28T20:55:13;99984.34;;;-3.92;87.43
27864;BME280;15980;51.092;13.916;2023-02-28T21:05:14;99989.91;;;-3.93;87.82
27864;BME280;15980;51.092;13.916;2023-02-28T21:15:14;99992.28;;;-4.10;87.62
27864;BME280;15980;51.092;13.916;2023-02-28T21:25:15;99978.31;;;-4.19;88.18
27864;BME280;15980;51.092;13.916;2023-02-28T21:35:15;99970.13;;;-4.30;87.97
27864;BME280;15980;51.092;13.916;2023-02-28T21:45:15;99973.22;;;-4.33;88.32
27864;BME280;15980;51.092;13.916;2023-02-28T21:55:16;99983.50;;;-4.37;87.90
27864;BME280;15980;51.092;13.916;2023-02-28T22:05:16;99974.50;;;-4.49;87.92
27864;BME280;15980;51.092;13.916;2023-02-28T22:15:16;99970.59;;;-4.53;87.76
27864;BME280;15980;51.092;13.916;2023-02-28T22:25:16;99992.66;;;-4.58;87.60
27864;BME280;15980;51.092;13.916;2023-02-28T22:35:17;99986.09;;;-4.68;87.81
27864;BME280;15980;51.092;13.916;2023-02-28T22:45:17;99990.03;;;-4.84;87.54
27864;BME280;15980;51.092;13.916;2023-02-28T22:55:17;99996.22;;;-4.90;87.65
27864;BME280;15980;51.092;13.916;2023-02-28T23:05:18;99992.94;;;-4.99;87.84
27864;BME280;15980;51.092;13.916;2023-02-28T23:15:19;99998.72;;;-5.09;87.75
27864;BME280;15980;51.092;13.916;2023-02-28T23:25:20;99992.13;;;-5.19;87.79
27864;BME280;15980;51.092;13.916;2023-02-28T23:35:20;100004.03;;;-5.28;87.19
27864;BME280;15980;51.092;13.916;2023-02-28T23:45:21;100014.97;;;-5.30;87.88
27864;BME280;15980;51.092;13.916;2023-02-28T23:55:21;100004.47;;;-5.38;88.26
